sensor_id;sensor_type;location;lat;lon;timestamp;P1;durP1;ratioP1;P2;durP2;ratioP2
37477;SDS011;23334;54.316;10.182;2022-07-01T00:02:17;10.47;;;9.47;;
37477;SDS011;23334;54.316;10.182;2022-07-01T00:04:43;16.80;;;11.73;;
37477;SDS011;23334;54.316;10.182;2022-07-01T00:07:09;11.73;;;10.50;;
37477;SDS011;23334;54.316;10.182;2022-07-01T00:09:36;11.43;;;10.27;;
37477;SDS011;23334;54.316;10.182;2022-07-01T00:12:03;14.90;;;10.80;;
37477;SDS011;23334;54.316;10.182;2022-07-01T00:14:29;14.60;;;10.80;;
37477;SDS011;23334;54.316;10.182;2022-07-01T00:16:55;14.30;;;10.87;;
37477;SDS011;23334;54.316;10.182;2022-07-01T00:19:21;13.53;;;10.67;;
37477;SDS011;23334;54.316;10.182;2022-07-01T00:21:46;13.57;;;11.17;;
37477;SDS011;23334;54.316;10.182;2022-07-01T00:24:12;16.13;;;11.20;;
37477;SDS011;23334;54.316;10.182;2022-07-01T00:26:38;17.90;;;12.00;;
37477;SDS011;23334;54.316;10.182;2022-07-01T00:29:04;16.93;;;12.80;;
37477;SDS011;23334;54.316;10.182;2022-07-01T00:31:30;15.80;;;13.33;;
37477;SDS011;23334;54.316;10.182;2022-07-01T00:33:56;18.33;;;11.00;;
37477;SDS011;23334;54.316;10.182;2022-07-01T00:36:22;17.87;;;12.40;;
37477;SDS011;23334;54.316;10.182;2022-07-01T00:38:47;18.53;;;12.40;;
37477;SDS011;23334;54.316;10.182;2022-07-01T00:41:13;15.60;;;11.77;;
37477;SDS011;23334;54.316;10.182;2022-07-01T00:43:39;17.47;;;12.30;;
37477;SDS011;23334;54.316;10.182;2022-07-01T00:46:05;17.50;;;12.70;;
37477;SDS011;23334;54.316;10.182;2022-07-01T00:48:31;14.13;;;12.00;;
37477;SDS011;23334;54.316;10.182;2022-07-01T00:50:59;14.63;;;11.90;;
37477;SDS011;23334;54.316;10.182;2022-07-01T00:53:25;17.87;;;12.53;;
37477;SDS011;23334;54.316;10.182;2022-07-01T00:55:52;17.50;;;12.30;;
37477;SDS011;23334;54.316;10.182;2022-07-01T00:58:18;25.93;;;12.20;;
37477;SDS011;23334;54.316;10.182;2022-07-01T01:00:43;17.40;;;13.20;;
37477;SDS011;23334;54.316;10.182;2022-07-01T01:03:09;15.50;;;13.10;;
37477;SDS011;23334;54.316;10.182;2022-07-01T01:05:36;22.57;;;13.07;;
37477;SDS011;23334;54.316;10.182;2022-07-01T01:08:03;18.03;;;12.27;;
37477;SDS011;23334;54.316;10.182;2022-07-01T01:10:30;17.60;;;12.00;;
37477;SDS011;23334;54.316;10.182;2022-07-01T01:12:56;15.50;;;12.40;;
37477;SDS011;23334;54.316;10.182;2022-07-01T01:15:22;15.63;;;11.90;;
37477;SDS011;23334;54.316;10.182;2022-07-01T01:17:49;16.40;;;12.67;;
37477;SDS011;23334;54.316;10.182;2022-07-01T01:20:15;16.17;;;11.57;;
37477;SDS011;23334;54.316;10.182;2022-07-01T01:22:43;21.93;;;13.23;;
37477;SDS011;23334;54.316;10.182;2022-07-01T01:25:09;14.90;;;12.13;;
37477;SDS011;23334;54.316;10.182;2022-07-01T01:27:34;16.00;;;12.73;;
37477;SDS011;23334;54.316;10.182;2022-07-01T01:30:02;15.97;;;12.50;;
37477;SDS011;23334;54.316;10.182;2022-07-01T01:32:30;16.10;;;11.73;;
37477;SDS011;23334;54.316;10.182;2022-07-01T01:34:56;17.47;;;12.67;;
37477;SDS011;23334;54.316;10.182;2022-07-01T01:37:22;19.00;;;13.07;;
37477;SDS011;23334;54.316;10.182;2022-07-01T01:39:48;17.50;;;12.17;;
37477;SDS011;23334;54.316;10.182;2022-07-01T01:42:14;14.40;;;11.03;;
37477;SDS011;23334;54.316;10.182;2022-07-01T01:44:40;17.43;;;12.17;;
37477;SDS011;23334;54.316;10.182;2022-07-01T01:47:05;14.57;;;10.70;;
37477;SDS011;23334;54.316;10.182;2022-07-01T01:49:31;16.13;;;11.67;;
37477;SDS011;23334;54.316;10.182;2022-07-01T01:51:57;12.33;;;10.50;;
37477;SDS011;23334;54.316;10.182;2022-07-01T01:54:24;17.70;;;12.17;;
37477;SDS011;23334;54.316;10.182;2022-07-01T01:56:50;15.13;;;11.57;;
37477;SDS011;23334;54.316;10.182;2022-07-01T01:59:16;14.80;;;11.60;;
37477;SDS011;23334;54.316;10.182;2022-07-01T02:01:42;17.47;;;13.13;;
37477;SDS011;23334;54.316;10.182;2022-07-01T02:04:08;16.80;;;12.00;;
37477;SDS011;23334;54.316;10.182;2022-07-01T02:06:34;19.13;;;12.47;;
37477;SDS011;23334;54.316;10.182;2022-07-01T02:09:00;15.53;;;12.30;;
37477;SDS011;23334;54.316;10.182;2022-07-01T02:11:26;19.37;;;13.03;;
37477;SDS011;23334;54.316;10.182;2022-07-01T02:13:52;15.70;;;11.77;;
37477;SDS011;23334;54.316;10.182;2022-07-01T02:16:17;17.70;;;12.00;;
37477;SDS011;23334;54.316;10.182;2022-07-01T02:18:43;18.27;;;12.90;;
37477;SDS011;23334;54.316;10.182;2022-07-01T02:21:09;17.20;;;13.20;;
37477;SDS011;23334;54.316;10.182;2022-07-01T02:23:35;19.33;;;13.40;;
37477;SDS011;23334;54.316;10.182;2022-07-01T02:26:01;15.27;;;12.53;;
37477;SDS011;23334;54.316;10.182;2022-07-01T02:28:27;17.47;;;13.70;;
37477;SDS011;23334;54.316;10.182;2022-07-01T02:30:53;17.80;;;13.00;;
37477;SDS011;23334;54.316;10.182;2022-07-01T02:33:19;20.50;;;12.43;;
37477;SDS011;23334;54.316;10.182;2022-07-01T02:35:45;21.80;;;14.23;;
37477;SDS011;23334;54.316;10.182;2022-07-01T02:38:11;20.80;;;14.73;;
37477;SDS011;23334;54.316;10.182;2022-07-01T02:40:37;18.27;;;12.93;;
37477;SDS011;23334;54.316;10.182;2022-07-01T02:43:04;20.47;;;14.50;;
37477;SDS011;23334;54.316;10.182;2022-07-01T02:45:33;19.60;;;13.60;;
37477;SDS011;23334;54.316;10.182;2022-07-01T02:47:59;18.30;;;13.77;;
37477;SDS011;23334;54.316;10.182;2022-07-01T02:50:26;16.20;;;13.47;;
37477;SDS011;23334;54.316;10.182;2022-07-01T02:52:52;18.23;;;13.80;;
37477;SDS011;23334;54.316;10.182;2022-07-01T02:55:18;19.57;;;14.53;;
37477;SDS011;23334;54.316;10.182;2022-07-01T02:57:43;18.67;;;14.80;;
37477;SDS011;23334;54.316;10.182;2022-07-01T03:00:11;21.80;;;14.60;;
37477;SDS011;23334;54.316;10.182;2022-07-01T03:02:38;21.87;;;13.53;;
37477;SDS011;23334;54.316;10.182;2022-07-01T03:05:04;20.37;;;13.67;;
37477;SDS011;23334;54.316;10.182;2022-07-01T03:07:30;21.37;;;13.80;;
37477;SDS011;23334;54.316;10.182;2022-07-01T03:09:56;18.00;;;13.63;;
37477;SDS011;23334;54.316;10.182;2022-07-01T03:12:22;25.60;;;13.37;;
37477;SDS011;23334;54.316;10.182;2022-07-01T03:14:53;23.17;;;14.13;;
37477;SDS011;23334;54.316;10.182;2022-07-01T03:17:23;21.17;;;14.80;;
37477;SDS011;23334;54.316;10.182;2022-07-01T03:19:49;21.57;;;13.87;;
37477;SDS011;23334;54.316;10.182;2022-07-01T03:22:23;20.40;;;15.50;;
37477;SDS011;23334;54.316;10.182;2022-07-01T03:24:51;25.50;;;15.00;;
37477;SDS011;23334;54.316;10.182;2022-07-01T03:27:17;18.97;;;14.67;;
37477;SDS011;23334;54.316;10.182;2022-07-01T03:29:43;23.93;;;15.43;;
37477;SDS011;23334;54.316;10.182;2022-07-01T03:32:09;18.53;;;14.53;;
37477;SDS011;23334;54.316;10.182;2022-07-01T03:34:36;19.70;;;14.63;;
37477;SDS011;23334;54.316;10.182;2022-07-01T03:37:07;18.77;;;14.43;;
37477;SDS011;23334;54.316;10.182;2022-07-01T03:39:33;21.43;;;15.20;;
37477;SDS011;23334;54.316;10.182;2022-07-01T03:42:00;23.77;;;16.00;;
37477;SDS011;23334;54.316;10.182;2022-07-01T03:44:26;23.07;;;15.50;;
37477;SDS011;23334;54.316;10.182;2022-07-01T03:46:53;21.63;;;15.30;;
37477;SDS011;23334;54.316;10.182;2022-07-01T03:49:19;23.67;;;15.70;;
37477;SDS011;23334;54.316;10.182;2022-07-01T03:51:45;22.20;;;15.80;;
37477;SDS011;23334;54.316;10.182;2022-07-01T03:54:11;22.27;;;16.47;;
37477;SDS011;23334;54.316;10.182;2022-07-01T03:56:56;27.17;;;15.77;;
37477;SDS011;23334;54.316;10.182;2022-07-01T03:59:22;23.67;;;15.97;;
37477;SDS011;23334;54.316;10.182;2022-07-01T04:01:47;23.87;;;16.40;;
37477;SDS011;23334;54.316;10.182;2022-07-01T04:04:13;26.93;;;15.30;;
37477;SDS011;23334;54.316;10.182;2022-07-01T04:06:39;24.53;;;16.37;;
37477;SDS011;23334;54.316;10.182;2022-07-01T04:09:05;21.87;;;16.80;;
37477;SDS011;23334;54.316;10.182;2022-07-01T04:11:31;20.87;;;15.00;;
37477;SDS011;23334;54.316;10.182;2022-07-01T04:13:58;20.20;;;15.60;;
37477;SDS011;23334;54.316;10.182;2022-07-01T04:16:23;20.67;;;15.20;;
37477;SDS011;23334;54.316;10.182;2022-07-01T04:18:50;25.60;;;16.60;;
37477;SDS011;23334;54.316;10.182;2022-07-01T04:21:17;29.03;;;13.90;;
37477;SDS011;23334;54.316;10.182;2022-07-01T04:24:01;22.13;;;13.77;;
37477;SDS011;23334;54.316;10.182;2022-07-01T04:26:26;22.20;;;14.93;;
37477;SDS011;23334;54.316;10.182;2022-07-01T04:28:52;18.80;;;14.50;;
37477;SDS011;23334;54.316;10.182;2022-07-01T04:31:19;20.67;;;14.23;;
37477;SDS011;23334;54.316;10.182;2022-07-01T04:33:46;18.73;;;12.73;;
37477;SDS011;23334;54.316;10.182;2022-07-01T04:36:13;20.30;;;14.43;;
37477;SDS011;23334;54.316;10.182;2022-07-01T04:38:39;19.57;;;13.23;;
37477;SDS011;23334;54.316;10.182;2022-07-01T04:41:05;18.37;;;14.17;;
37477;SDS011;23334;54.316;10.182;2022-07-01T04:43:49;15.77;;;11.73;;
37477;SDS011;23334;54.316;10.182;2022-07-01T04:46:14;15.60;;;11.53;;
37477;SDS011;23334;54.316;10.182;2022-07-01T04:48:41;13.43;;;11.50;;
37477;SDS011;23334;54.316;10.182;2022-07-01T04:51:07;16.37;;;10.80;;
37477;SDS011;23334;54.316;10.182;2022-07-01T04:53:33;12.60;;;10.67;;
37477;SDS011;23334;54.316;10.182;2022-07-01T04:55:58;14.20;;;10.17;;
37477;SDS011;23334;54.316;10.182;2022-07-01T04:58:24;12.10;;;10.00;;
37477;SDS011;23334;54.316;10.182;2022-07-01T05:00:51;12.20;;;9.83;;
37477;SDS011;23334;54.316;10.182;2022-07-01T05:03:17;12.03;;;9.57;;
37477;SDS011;23334;54.316;10.182;2022-07-01T05:05:43;12.60;;;10.37;;
37477;SDS011;23334;54.316;10.182;2022-07-01T05:08:09;11.00;;;9.27;;
37477;SDS011;23334;54.316;10.182;2022-07-01T05:10:35;11.20;;;9.07;;
37477;SDS011;23334;54.316;10.182;2022-07-01T05:13:01;10.87;;;8.20;;
37477;SDS011;23334;54.316;10.182;2022-07-01T05:15:27;9.50;;;8.13;;
37477;SDS011;23334;54.316;10.182;2022-07-01T05:17:53;9.00;;;7.63;;
37477;SDS011;23334;54.316;10.182;2022-07-01T05:20:37;10.63;;;7.63;;
37477;SDS011;23334;54.316;10.182;2022-07-01T05:23:22;8.17;;;7.30;;
37477;SDS011;23334;54.316;10.182;2022-07-01T05:25:47;10.33;;;7.50;;
37477;SDS011;23334;54.316;10.182;2022-07-01T05:28:13;8.87;;;7.80;;
37477;SDS011;23334;54.316;10.182;2022-07-01T05:30:39;7.73;;;7.03;;
37477;SDS011;23334;54.316;10.182;2022-07-01T05:33:05;7.87;;;7.13;;
37477;SDS011;23334;54.316;10.182;2022-07-01T05:35:31;7.47;;;6.73;;
37477;SDS011;23334;54.316;10.182;2022-07-01T05:37:57;8.23;;;6.50;;
37477;SDS011;23334;54.316;10.182;2022-07-01T05:40:23;6.57;;;5.87;;
37477;SDS011;23334;54.316;10.182;2022-07-01T05:42:50;6.80;;;6.10;;
37477;SDS011;23334;54.316;10.182;2022-07-01T05:45:16;9.13;;;5.90;;
37477;SDS011;23334;54.316;10.182;2022-07-01T05:47:42;8.63;;;6.43;;
37477;SDS011;23334;54.316;10.182;2022-07-01T05:50:08;9.50;;;5.13;;
37477;SDS011;23334;54.316;10.182;2022-07-01T05:52:34;9.67;;;4.70;;
37477;SDS011;23334;54.316;10.182;2022-07-01T05:55:00;13.00;;;5.57;;
37477;SDS011;23334;54.316;10.182;2022-07-01T05:57:26;15.60;;;6.33;;
37477;SDS011;23334;54.316;10.182;2022-07-01T05:59:52;12.30;;;5.50;;
37477;SDS011;23334;54.316;10.182;2022-07-01T06:02:17;14.93;;;6.73;;
37477;SDS011;23334;54.316;10.182;2022-07-01T06:04:44;6.43;;;5.33;;
37477;SDS011;23334;54.316;10.182;2022-07-01T06:07:09;14.70;;;5.77;;
37477;SDS011;23334;54.316;10.182;2022-07-01T06:09:36;17.00;;;5.67;;
37477;SDS011;23334;54.316;10.182;2022-07-01T06:12:02;9.10;;;5.07;;
37477;SDS011;23334;54.316;10.182;2022-07-01T06:14:28;9.73;;;5.87;;
37477;SDS011;23334;54.316;10.182;2022-07-01T06:16:54;11.57;;;5.33;;
37477;SDS011;23334;54.316;10.182;2022-07-01T06:19:20;9.53;;;4.40;;
37477;SDS011;23334;54.316;10.182;2022-07-01T06:21:46;13.70;;;5.40;;
37477;SDS011;23334;54.316;10.182;2022-07-01T06:24:12;5.10;;;4.30;;
37477;SDS011;23334;54.316;10.182;2022-07-01T06:26:39;9.07;;;4.80;;
37477;SDS011;23334;54.316;10.182;2022-07-01T06:29:05;15.03;;;4.40;;
37477;SDS011;23334;54.316;10.182;2022-07-01T06:31:31;11.30;;;5.10;;
37477;SDS011;23334;54.316;10.182;2022-07-01T06:33:58;10.33;;;4.73;;
37477;SDS011;23334;54.316;10.182;2022-07-01T06:36:25;11.47;;;4.70;;
37477;SDS011;23334;54.316;10.182;2022-07-01T06:38:51;10.47;;;5.00;;
37477;SDS011;23334;54.316;10.182;2022-07-01T06:41:17;9.40;;;4.97;;
37477;SDS011;23334;54.316;10.182;2022-07-01T06:43:51;11.93;;;5.80;;
37477;SDS011;23334;54.316;10.182;2022-07-01T06:46:18;17.30;;;5.77;;
37477;SDS011;23334;54.316;10.182;2022-07-01T06:48:44;7.57;;;4.40;;
37477;SDS011;23334;54.316;10.182;2022-07-01T06:51:10;13.23;;;5.60;;
37477;SDS011;23334;54.316;10.182;2022-07-01T06:53:35;10.20;;;5.10;;
37477;SDS011;23334;54.316;10.182;2022-07-01T06:56:01;11.30;;;3.70;;
37477;SDS011;23334;54.316;10.182;2022-07-01T06:58:27;8.90;;;3.13;;
37477;SDS011;23334;54.316;10.182;2022-07-01T07:00:53;6.13;;;3.80;;
37477;SDS011;23334;54.316;10.182;2022-07-01T07:03:19;5.43;;;3.23;;
37477;SDS011;23334;54.316;10.182;2022-07-01T07:05:45;9.90;;;3.10;;
37477;SDS011;23334;54.316;10.182;2022-07-01T07:08:11;12.47;;;3.73;;
37477;SDS011;23334;54.316;10.182;2022-07-01T07:10:37;5.20;;;3.00;;
37477;SDS011;23334;54.316;10.182;2022-07-01T07:13:03;8.97;;;3.73;;
37477;SDS011;23334;54.316;10.182;2022-07-01T07:15:29;6.50;;;3.00;;
37477;SDS011;23334;54.316;10.182;2022-07-01T07:17:54;7.63;;;2.73;;
37477;SDS011;23334;54.316;10.182;2022-07-01T07:20:22;8.63;;;2.70;;
37477;SDS011;23334;54.316;10.182;2022-07-01T07:22:52;9.10;;;2.23;;
37477;SDS011;23334;54.316;10.182;2022-07-01T07:25:18;4.37;;;2.50;;
37477;SDS011;23334;54.316;10.182;2022-07-01T07:27:44;5.10;;;2.93;;
37477;SDS011;23334;54.316;10.182;2022-07-01T07:30:14;5.13;;;1.87;;
37477;SDS011;23334;54.316;10.182;2022-07-01T07:32:40;21.03;;;3.00;;
37477;SDS011;23334;54.316;10.182;2022-07-01T07:35:07;13.23;;;1.73;;
37477;SDS011;23334;54.316;10.182;2022-07-01T07:37:33;3.20;;;1.97;;
37477;SDS011;23334;54.316;10.182;2022-07-01T07:39:59;3.00;;;1.80;;
37477;SDS011;23334;54.316;10.182;2022-07-01T07:42:26;7.73;;;1.67;;
37477;SDS011;23334;54.316;10.182;2022-07-01T07:44:52;4.20;;;1.30;;
37477;SDS011;23334;54.316;10.182;2022-07-01T07:47:17;5.63;;;1.70;;
37477;SDS011;23334;54.316;10.182;2022-07-01T07:49:43;4.03;;;1.80;;
37477;SDS011;23334;54.316;10.182;2022-07-01T07:52:09;5.17;;;1.43;;
37477;SDS011;23334;54.316;10.182;2022-07-01T07:54:35;2.50;;;1.00;;
37477;SDS011;23334;54.316;10.182;2022-07-01T07:57:01;4.03;;;2.20;;
37477;SDS011;23334;54.316;10.182;2022-07-01T07:59:27;3.90;;;1.53;;
37477;SDS011;23334;54.316;10.182;2022-07-01T08:01:53;2.87;;;2.20;;
37477;SDS011;23334;54.316;10.182;2022-07-01T08:04:19;2.53;;;1.90;;
37477;SDS011;23334;54.316;10.182;2022-07-01T08:06:45;9.90;;;2.53;;
37477;SDS011;23334;54.316;10.182;2022-07-01T08:09:11;2.70;;;2.30;;
37477;SDS011;23334;54.316;10.182;2022-07-01T08:11:37;4.53;;;2.30;;
37477;SDS011;23334;54.316;10.182;2022-07-01T08:14:03;8.07;;;1.50;;
37477;SDS011;23334;54.316;10.182;2022-07-01T08:16:29;4.50;;;1.57;;
37477;SDS011;23334;54.316;10.182;2022-07-01T08:18:55;1.60;;;1.43;;
37477;SDS011;23334;54.316;10.182;2022-07-01T08:21:21;1.83;;;1.73;;
37477;SDS011;23334;54.316;10.182;2022-07-01T08:23:47;2.70;;;1.80;;
37477;SDS011;23334;54.316;10.182;2022-07-01T08:26:13;4.13;;;1.50;;
37477;SDS011;23334;54.316;10.182;2022-07-01T08:28:40;2.53;;;1.20;;
37477;SDS011;23334;54.316;10.182;2022-07-01T08:31:06;3.43;;;1.40;;
37477;SDS011;23334;54.316;10.182;2022-07-01T08:33:32;5.10;;;1.70;;
37477;SDS011;23334;54.316;10.182;2022-07-01T08:35:58;2.57;;;1.13;;
37477;SDS011;23334;54.316;10.182;2022-07-01T08:38:24;5.10;;;1.00;;
37477;SDS011;23334;54.316;10.182;2022-07-01T08:40:50;3.00;;;1.00;;
37477;SDS011;23334;54.316;10.182;2022-07-01T08:43:16;1.63;;;1.00;;
37477;SDS011;23334;54.316;10.182;2022-07-01T08:45:42;3.20;;;0.77;;
37477;SDS011;23334;54.316;10.182;2022-07-01T08:48:08;3.20;;;0.90;;
37477;SDS011;23334;54.316;10.182;2022-07-01T08:50:37;2.13;;;1.20;;
37477;SDS011;23334;54.316;10.182;2022-07-01T08:53:05;1.67;;;0.73;;
37477;SDS011;23334;54.316;10.182;2022-07-01T08:55:32;9.87;;;1.30;;
37477;SDS011;23334;54.316;10.182;2022-07-01T08:58:19;1.53;;;1.10;;
37477;SDS011;23334;54.316;10.182;2022-07-01T09:00:45;1.80;;;1.07;;
37477;SDS011;23334;54.316;10.182;2022-07-01T09:03:11;1.10;;;0.70;;
37477;SDS011;23334;54.316;10.182;2022-07-01T09:05:36;1.23;;;0.80;;
37477;SDS011;23334;54.316;10.182;2022-07-01T09:08:03;1.73;;;0.70;;
37477;SDS011;23334;54.316;10.182;2022-07-01T09:10:31;2.10;;;0.93;;
37477;SDS011;23334;54.316;10.182;2022-07-01T09:13:08;1.00;;;0.60;;
37477;SDS011;23334;54.316;10.182;2022-07-01T09:15:36;1.17;;;0.73;;
37477;SDS011;23334;54.316;10.182;2022-07-01T09:18:04;1.43;;;0.80;;
37477;SDS011;23334;54.316;10.182;2022-07-01T09:20:42;1.30;;;1.13;;
37477;SDS011;23334;54.316;10.182;2022-07-01T09:23:13;5.87;;;0.90;;
37477;SDS011;23334;54.316;10.182;2022-07-01T09:30:44;1.40;;;0.60;;
37477;SDS011;23334;54.316;10.182;2022-07-01T09:33:12;1.93;;;1.07;;
37477;SDS011;23334;54.316;10.182;2022-07-01T09:35:39;1.83;;;0.80;;
37477;SDS011;23334;54.316;10.182;2022-07-01T09:38:06;1.00;;;0.60;;
37477;SDS011;23334;54.316;10.182;2022-07-01T09:40:57;1.73;;;0.80;;
37477;SDS011;23334;54.316;10.182;2022-07-01T09:43:25;4.70;;;0.70;;
37477;SDS011;23334;54.316;10.182;2022-07-01T09:46:04;1.70;;;1.00;;
37477;SDS011;23334;54.316;10.182;2022-07-01T09:50:58;5.20;;;1.50;;
37477;SDS011;23334;54.316;10.182;2022-07-01T09:53:24;1.63;;;1.10;;
37477;SDS011;23334;54.316;10.182;2022-07-01T09:55:50;1.90;;;0.83;;
37477;SDS011;23334;54.316;10.182;2022-07-01T09:58:17;3.13;;;1.20;;
37477;SDS011;23334;54.316;10.182;2022-07-01T10:00:43;1.23;;;1.13;;
37477;SDS011;23334;54.316;10.182;2022-07-01T10:03:10;2.17;;;0.87;;
37477;SDS011;23334;54.316;10.182;2022-07-01T10:05:41;1.20;;;0.90;;
37477;SDS011;23334;54.316;10.182;2022-07-01T10:08:26;3.23;;;1.10;;
37477;SDS011;23334;54.316;10.182;2022-07-01T10:14:04;3.57;;;1.23;;
37477;SDS011;23334;54.316;10.182;2022-07-01T10:16:32;4.30;;;0.60;;
37477;SDS011;23334;54.316;10.182;2022-07-01T10:18:59;1.40;;;0.70;;
37477;SDS011;23334;54.316;10.182;2022-07-01T10:21:26;2.33;;;0.70;;
37477;SDS011;23334;54.316;10.182;2022-07-01T10:24:11;0.80;;;0.70;;
37477;SDS011;23334;54.316;10.182;2022-07-01T10:26:38;2.20;;;0.90;;
37477;SDS011;23334;54.316;10.182;2022-07-01T10:29:04;1.27;;;0.70;;
37477;SDS011;23334;54.316;10.182;2022-07-01T10:31:36;1.00;;;0.77;;
37477;SDS011;23334;54.316;10.182;2022-07-01T10:34:02;0.73;;;0.60;;
37477;SDS011;23334;54.316;10.182;2022-07-01T10:36:30;1.67;;;0.87;;
37477;SDS011;23334;54.316;10.182;2022-07-01T10:44:17;4.83;;;0.90;;
37477;SDS011;23334;54.316;10.182;2022-07-01T10:52:03;1.60;;;1.00;;
37477;SDS011;23334;54.316;10.182;2022-07-01T10:59:42;5.10;;;1.30;;
37477;SDS011;23334;54.316;10.182;2022-07-01T11:02:19;3.43;;;0.87;;
37477;SDS011;23334;54.316;10.182;2022-07-01T11:04:45;3.07;;;1.27;;
37477;SDS011;23334;54.316;10.182;2022-07-01T11:07:11;1.53;;;1.10;;
37477;SDS011;23334;54.316;10.182;2022-07-01T11:09:37;4.20;;;1.40;;
37477;SDS011;23334;54.316;10.182;2022-07-01T11:12:05;3.50;;;1.17;;
37477;SDS011;23334;54.316;10.182;2022-07-01T11:14:33;2.20;;;1.17;;
37477;SDS011;23334;54.316;10.182;2022-07-01T11:17:00;2.40;;;1.53;;
37477;SDS011;23334;54.316;10.182;2022-07-01T11:19:27;1.97;;;1.37;;
37477;SDS011;23334;54.316;10.182;2022-07-01T11:21:52;2.03;;;1.00;;
37477;SDS011;23334;54.316;10.182;2022-07-01T11:24:22;6.73;;;1.20;;
37477;SDS011;23334;54.316;10.182;2022-07-01T11:26:48;1.20;;;1.10;;
37477;SDS011;23334;54.316;10.182;2022-07-01T11:29:14;2.87;;;1.17;;
37477;SDS011;23334;54.316;10.182;2022-07-01T11:31:49;4.90;;;1.40;;
37477;SDS011;23334;54.316;10.182;2022-07-01T11:34:16;2.80;;;1.30;;
37477;SDS011;23334;54.316;10.182;2022-07-01T11:36:43;4.10;;;1.00;;
37477;SDS011;23334;54.316;10.182;2022-07-01T11:39:28;3.97;;;1.30;;
37477;SDS011;23334;54.316;10.182;2022-07-01T11:41:59;1.73;;;0.90;;
37477;SDS011;23334;54.316;10.182;2022-07-01T11:44:31;1.50;;;1.40;;
37477;SDS011;23334;54.316;10.182;2022-07-01T11:47:02;4.70;;;0.93;;
37477;SDS011;23334;54.316;10.182;2022-07-01T11:49:47;3.00;;;1.80;;
37477;SDS011;23334;54.316;10.182;2022-07-01T11:52:13;6.10;;;1.27;;
37477;SDS011;23334;54.316;10.182;2022-07-01T11:54:41;2.40;;;1.87;;
37477;SDS011;23334;54.316;10.182;2022-07-01T11:57:11;3.27;;;1.10;;
37477;SDS011;23334;54.316;10.182;2022-07-01T11:59:38;4.93;;;1.40;;
37477;SDS011;23334;54.316;10.182;2022-07-01T12:02:05;1.97;;;1.50;;
37477;SDS011;23334;54.316;10.182;2022-07-01T12:04:31;5.00;;;1.67;;
37477;SDS011;23334;54.316;10.182;2022-07-01T12:06:57;1.73;;;1.20;;
37477;SDS011;23334;54.316;10.182;2022-07-01T12:09:24;4.77;;;1.20;;
37477;SDS011;23334;54.316;10.182;2022-07-01T12:11:50;2.80;;;1.47;;
37477;SDS011;23334;54.316;10.182;2022-07-01T12:16:52;2.67;;;1.03;;
37477;SDS011;23334;54.316;10.182;2022-07-01T12:19:20;2.30;;;1.07;;
37477;SDS011;23334;54.316;10.182;2022-07-01T12:21:46;2.20;;;1.20;;
37477;SDS011;23334;54.316;10.182;2022-07-01T12:24:16;1.87;;;1.07;;
37477;SDS011;23334;54.316;10.182;2022-07-01T12:29:27;6.43;;;1.00;;
37477;SDS011;23334;54.316;10.182;2022-07-01T12:31:58;5.33;;;1.60;;
37477;SDS011;23334;54.316;10.182;2022-07-01T12:34:45;4.73;;;1.50;;
37477;SDS011;23334;54.316;10.182;2022-07-01T12:37:13;3.87;;;1.40;;
37477;SDS011;23334;54.316;10.182;2022-07-01T12:39:44;5.13;;;1.20;;
37477;SDS011;23334;54.316;10.182;2022-07-01T12:42:25;3.43;;;1.70;;
37477;SDS011;23334;54.316;10.182;2022-07-01T12:45:08;1.97;;;1.60;;
37477;SDS011;23334;54.316;10.182;2022-07-01T12:47:36;3.17;;;1.53;;
37477;SDS011;23334;54.316;10.182;2022-07-01T12:50:23;2.57;;;2.37;;
37477;SDS011;23334;54.316;10.182;2022-07-01T12:55:40;3.70;;;1.33;;
37477;SDS011;23334;54.316;10.182;2022-07-01T12:58:11;1.13;;;1.03;;
37477;SDS011;23334;54.316;10.182;2022-07-01T13:00:39;2.30;;;1.53;;
37477;SDS011;23334;54.316;10.182;2022-07-01T13:03:06;1.20;;;1.10;;
37477;SDS011;23334;54.316;10.182;2022-07-01T13:05:33;4.07;;;1.83;;
37477;SDS011;23334;54.316;10.182;2022-07-01T13:08:03;1.87;;;1.33;;
37477;SDS011;23334;54.316;10.182;2022-07-01T13:10:29;2.13;;;1.33;;
37477;SDS011;23334;54.316;10.182;2022-07-01T13:12:55;3.50;;;1.60;;
37477;SDS011;23334;54.316;10.182;2022-07-01T13:15:21;2.80;;;1.40;;
37477;SDS011;23334;54.316;10.182;2022-07-01T13:17:47;1.80;;;1.70;;
37477;SDS011;23334;54.316;10.182;2022-07-01T13:20:13;2.80;;;1.80;;
37477;SDS011;23334;54.316;10.182;2022-07-01T13:22:40;3.80;;;1.70;;
37477;SDS011;23334;54.316;10.182;2022-07-01T13:25:07;3.93;;;1.50;;
37477;SDS011;23334;54.316;10.182;2022-07-01T13:27:34;1.50;;;1.40;;
37477;SDS011;23334;54.316;10.182;2022-07-01T13:29:59;3.00;;;1.50;;
37477;SDS011;23334;54.316;10.182;2022-07-01T13:32:27;4.53;;;1.50;;
37477;SDS011;23334;54.316;10.182;2022-07-01T13:34:54;2.10;;;1.23;;
37477;SDS011;23334;54.316;10.182;2022-07-01T13:37:19;3.60;;;2.50;;
37477;SDS011;23334;54.316;10.182;2022-07-01T13:39:45;4.40;;;1.60;;
37477;SDS011;23334;54.316;10.182;2022-07-01T13:42:11;3.63;;;1.77;;
37477;SDS011;23334;54.316;10.182;2022-07-01T13:44:38;1.93;;;1.60;;
37477;SDS011;23334;54.316;10.182;2022-07-01T13:47:04;2.53;;;1.80;;
37477;SDS011;23334;54.316;10.182;2022-07-01T13:49:38;3.20;;;1.80;;
37477;SDS011;23334;54.316;10.182;2022-07-01T13:52:04;3.40;;;1.80;;
37477;SDS011;23334;54.316;10.182;2022-07-01T13:54:30;6.80;;;1.83;;
37477;SDS011;23334;54.316;10.182;2022-07-01T13:56:56;2.90;;;2.20;;
37477;SDS011;23334;54.316;10.182;2022-07-01T13:59:22;2.93;;;1.90;;
37477;SDS011;23334;54.316;10.182;2022-07-01T14:01:47;4.17;;;1.80;;
37477;SDS011;23334;54.316;10.182;2022-07-01T14:04:13;8.23;;;1.47;;
37477;SDS011;23334;54.316;10.182;2022-07-01T14:06:39;9.70;;;1.40;;
37477;SDS011;23334;54.316;10.182;2022-07-01T14:09:05;5.70;;;1.60;;
37477;SDS011;23334;54.316;10.182;2022-07-01T14:11:31;3.23;;;1.10;;
37477;SDS011;23334;54.316;10.182;2022-07-01T14:13:56;1.90;;;1.53;;
37477;SDS011;23334;54.316;10.182;2022-07-01T14:16:22;4.00;;;1.30;;
37477;SDS011;23334;54.316;10.182;2022-07-01T14:18:48;3.30;;;1.00;;
37477;SDS011;23334;54.316;10.182;2022-07-01T14:21:17;5.03;;;1.33;;
37477;SDS011;23334;54.316;10.182;2022-07-01T14:23:43;12.53;;;1.40;;
37477;SDS011;23334;54.316;10.182;2022-07-01T14:26:09;5.43;;;1.17;;
37477;SDS011;23334;54.316;10.182;2022-07-01T14:28:35;1.60;;;1.20;;
37477;SDS011;23334;54.316;10.182;2022-07-01T14:31:00;3.60;;;1.20;;
37477;SDS011;23334;54.316;10.182;2022-07-01T14:33:26;9.07;;;1.70;;
37477;SDS011;23334;54.316;10.182;2022-07-01T14:35:52;4.70;;;0.90;;
37477;SDS011;23334;54.316;10.182;2022-07-01T14:38:18;2.80;;;1.50;;
37477;SDS011;23334;54.316;10.182;2022-07-01T14:40:44;3.43;;;1.30;;
37477;SDS011;23334;54.316;10.182;2022-07-01T14:43:10;5.97;;;1.47;;
37477;SDS011;23334;54.316;10.182;2022-07-01T14:45:36;2.13;;;1.40;;
37477;SDS011;23334;54.316;10.182;2022-07-01T14:48:01;9.50;;;1.07;;
37477;SDS011;23334;54.316;10.182;2022-07-01T14:50:27;5.60;;;2.00;;
37477;SDS011;23334;54.316;10.182;2022-07-01T14:52:53;4.23;;;1.00;;
37477;SDS011;23334;54.316;10.182;2022-07-01T14:55:19;7.17;;;1.70;;
37477;SDS011;23334;54.316;10.182;2022-07-01T14:57:45;2.23;;;1.13;;
37477;SDS011;23334;54.316;10.182;2022-07-01T15:00:11;4.23;;;1.23;;